Pagrindinis puslapis
METAR-TAF:

METAR-TAF

Oro uostai :

Vardė, Norvegija

platuma: 70-21N, ilguma: 031-03E, Aukštis: 12 m

Dabartinis oras

Ataskaita buvo paskelbta 6 valandos ir 47 minutes, ne 19:27 UTC
Vėjas 5 kt iš Šiaurės Rytų
Temperatūra 8°C
Drėgmė 87%
Slėgis 1018 hPa
Matomumas 10 km arba daugiau
Mažai debesys ne aukštis 1500 ft

METAR: ENSS 231927Z 05005KT 9999 FEW015 08/06 Q1018 RMK WIND 500FT 04008KT

Laikas: 04:14 (02:14 UTC)


TAF: trūkstamas

Orai ataskaitas ir orų prognozės (METAR, TAF).

turimą stotys yra geltonos ir raudonos taškus žemėlapyje.

Perkelti pele per norėdami pamatyti stoties vardą.

Tada spustelėkite, norėdami matyti oro stebėjimo ir prognozės.

Norėdami pakeisti žemėlapį: spustelėkite ant žalios mygtukų su juodo kryžiaus žemyn,; žalią mygtuką su brūkšneliu, jei norite nutolinti; arba žalių rodyklių gretimoms žemėlapius.


METAR-TAF: